createdAt,value
2023-02-11T00:01:01.237Z,30.5
2023-02-11T00:06:01.496Z,30.4
2023-02-11T00:11:01.902Z,30.2
2023-02-11T00:16:05.987Z,30.4
2023-02-11T00:21:01.309Z,29.8
2023-02-11T00:26:01.258Z,29.2
2023-02-11T00:31:01.714Z,28.6
2023-02-11T00:36:01.230Z,27.8
2023-02-11T00:41:01.311Z,26.3
2023-02-11T00:46:01.387Z,26.8
2023-02-11T00:51:01.398Z,26.8
2023-02-11T00:56:01.535Z,27.4
2023-02-11T01:01:02.406Z,28.0
2023-02-11T01:06:01.257Z,28.9
2023-02-11T01:11:01.560Z,28.6
2023-02-11T01:16:03.092Z,28.6
2023-02-11T01:21:01.320Z,28.5
2023-02-11T01:26:01.876Z,28.4
2023-02-11T01:31:01.572Z,28.9
2023-02-11T01:36:01.325Z,29.2
2023-02-11T01:41:03.725Z,29.6
2023-02-11T01:46:10.099Z,29.7
2023-02-11T01:56:01.235Z,29.9
2023-02-11T02:01:01.302Z,28.8
2023-02-11T02:06:01.548Z,28.4
2023-02-11T02:11:01.269Z,28.3
2023-02-11T02:16:01.537Z,28.3
2023-02-11T02:21:01.449Z,28.4
2023-02-11T02:26:01.427Z,29.4
2023-02-11T02:31:01.778Z,29.0
2023-02-11T02:36:01.238Z,28.4
2023-02-11T02:41:01.344Z,27.9
2023-02-11T02:46:01.393Z,27.2
2023-02-11T02:51:01.251Z,26.6
2023-02-11T03:01:01.520Z,26.8
2023-02-11T03:06:01.368Z,27.2
2023-02-11T03:11:01.259Z,27.9
2023-02-11T03:16:01.383Z,27.8
2023-02-11T03:21:01.365Z,27.6
2023-02-11T03:31:01.449Z,27.6
2023-02-11T03:36:01.285Z,27.4
2023-02-11T03:41:01.252Z,27.4
2023-02-11T03:46:01.560Z,28.2
2023-02-11T03:51:01.454Z,28.0
2023-02-11T03:56:01.281Z,27.9
2023-02-11T04:01:01.447Z,27.8
2023-02-11T04:06:01.330Z,28.4
2023-02-11T04:11:01.424Z,28.5
2023-02-11T04:16:01.468Z,27.0
2023-02-11T04:21:02.410Z,27.5
2023-02-11T04:26:01.374Z,27.6
2023-02-11T04:31:01.630Z,27.2
2023-02-11T04:36:01.338Z,26.9
2023-02-11T04:41:01.338Z,28.0
2023-02-11T04:46:01.497Z,28.0
2023-02-11T04:51:01.855Z,28.0
2023-02-11T04:56:01.409Z,27.9
2023-02-11T05:01:01.456Z,28.1
2023-02-11T05:06:01.273Z,28.5
2023-02-11T05:11:01.408Z,28.0
2023-02-11T05:16:01.312Z,28.1
2023-02-11T05:21:01.266Z,28.8
2023-02-11T05:26:01.253Z,28.4
2023-02-11T05:31:01.912Z,27.9
2023-02-11T05:36:01.290Z,28.5
2023-02-11T05:41:01.305Z,28.0
2023-02-11T05:46:01.411Z,28.3
2023-02-11T05:51:01.947Z,28.2
2023-02-11T06:01:01.316Z,28.1
2023-02-11T06:06:01.264Z,28.7
2023-02-11T06:11:01.439Z,28.6
2023-02-11T06:16:01.530Z,29.0
2023-02-11T06:21:01.383Z,29.2
2023-02-11T06:26:01.441Z,29.7
2023-02-11T06:31:01.805Z,29.7
2023-02-11T06:36:01.349Z,29.3
2023-02-11T06:41:01.279Z,29.5
2023-02-11T06:46:01.318Z,27.9
2023-02-11T06:51:03.165Z,27.9
2023-02-11T06:56:01.336Z,27.5
2023-02-11T07:01:01.254Z,27.8
2023-02-11T07:06:02.740Z,28.0
2023-02-11T07:11:01.491Z,29.2
2023-02-11T07:16:01.508Z,29.0
2023-02-11T07:21:01.257Z,29.0
2023-02-11T07:26:01.329Z,28.6
2023-02-11T07:31:01.994Z,28.5
2023-02-11T07:36:01.307Z,28.5
2023-02-11T07:41:01.539Z,28.7
2023-02-11T07:46:01.309Z,28.6
2023-02-11T07:51:02.135Z,28.6
2023-02-11T07:56:01.350Z,28.5
2023-02-11T08:01:01.469Z,28.6
2023-02-11T08:06:01.267Z,28.3
2023-02-11T08:11:01.458Z,28.5
2023-02-11T08:16:01.524Z,28.6
2023-02-11T08:21:01.288Z,28.6
2023-02-11T08:26:01.258Z,28.4
2023-02-11T08:31:01.604Z,28.3
2023-02-11T08:36:01.280Z,28.5
2023-02-11T08:41:01.411Z,27.5
2023-02-11T08:46:02.919Z,27.4
2023-02-11T08:51:01.911Z,27.2
2023-02-11T08:56:01.258Z,27.4
2023-02-11T09:01:01.474Z,27.2
2023-02-11T09:06:01.362Z,28.0
2023-02-11T09:11:01.509Z,28.4
2023-02-11T09:16:01.269Z,28.6
2023-02-11T09:21:01.273Z,28.8
2023-02-11T09:26:01.308Z,28.5
2023-02-11T09:31:01.687Z,27.8
2023-02-11T09:36:01.751Z,27.4
2023-02-11T09:41:01.293Z,27.5
2023-02-11T09:46:01.462Z,27.4
2023-02-11T09:51:01.512Z,27.7
2023-02-11T09:56:01.296Z,28.6
2023-02-11T10:01:21.277Z,28.7
2023-02-11T10:06:01.273Z,28.9
2023-02-11T10:11:32.700Z,27.7
2023-02-11T10:16:01.746Z,27.9
2023-02-11T10:21:01.370Z,27.4
2023-02-11T10:26:01.339Z,27.1
2023-02-11T10:31:01.958Z,26.8
2023-02-11T10:36:01.351Z,27.6
2023-02-11T10:41:01.278Z,26.9
2023-02-11T10:51:01.533Z,26.9
2023-02-11T10:56:01.260Z,27.0
2023-02-11T11:01:01.275Z,27.2
2023-02-11T11:06:01.352Z,27.2
2023-02-11T11:11:01.572Z,27.4
2023-02-11T11:16:01.447Z,27.7
2023-02-11T11:21:01.386Z,27.4
2023-02-11T11:26:05.195Z,27.4
2023-02-11T11:31:01.784Z,27.8
2023-02-11T11:36:01.424Z,27.7
2023-02-11T11:41:01.274Z,28.1
2023-02-11T11:46:01.352Z,28.8
2023-02-11T11:51:01.274Z,28.8
2023-02-11T11:56:01.328Z,28.8
2023-02-11T12:01:01.341Z,28.6
2023-02-11T12:06:01.425Z,28.4
2023-02-11T12:11:01.248Z,28.3
2023-02-11T12:16:01.430Z,28.1
2023-02-11T12:21:01.812Z,27.9
2023-02-11T12:26:01.420Z,22.4
2023-02-11T12:31:01.496Z,21.6
2023-02-11T12:36:01.390Z,21.4
2023-02-11T12:41:01.275Z,21.0
2023-02-11T12:46:01.646Z,20.8
2023-02-11T12:51:01.358Z,25.9
2023-02-11T12:56:01.312Z,26.6
2023-02-11T13:01:01.567Z,26.0
2023-02-11T13:06:01.467Z,25.5
2023-02-11T13:16:01.334Z,25.9
2023-02-11T13:21:01.452Z,25.8
2023-02-11T13:26:01.513Z,26.3
2023-02-11T13:31:01.701Z,26.3
2023-02-11T13:36:05.067Z,26.2
2023-02-11T13:41:01.265Z,26.5
2023-02-11T13:46:01.509Z,26.3
2023-02-11T13:51:01.344Z,26.4
2023-02-11T13:56:01.291Z,27.0
2023-02-11T14:01:01.490Z,26.4
2023-02-11T14:06:01.947Z,26.2
2023-02-11T14:11:01.332Z,25.4
2023-02-11T14:16:01.274Z,24.7
2023-02-11T14:21:03.757Z,24.1
2023-02-11T14:26:01.416Z,24.1
2023-02-11T14:31:01.862Z,23.6
2023-02-11T14:36:01.381Z,24.1
2023-02-11T14:41:01.255Z,24.2
2023-02-11T14:46:01.518Z,23.6
2023-02-11T14:51:01.282Z,23.7
2023-02-11T14:56:01.303Z,24.2
2023-02-11T15:01:01.279Z,24.9
2023-02-11T15:06:02.321Z,25.4
2023-02-11T15:11:01.367Z,26.1
2023-02-11T15:21:01.288Z,25.4
2023-02-11T15:26:01.436Z,25.0
2023-02-11T15:31:01.898Z,23.9
2023-02-11T15:41:03.032Z,24.2
2023-02-11T15:46:01.626Z,24.1
2023-02-11T15:51:01.805Z,23.7
2023-02-11T15:56:01.292Z,24.2
2023-02-11T16:01:01.379Z,24.2
2023-02-11T16:06:01.434Z,25.0
2023-02-11T16:11:01.285Z,25.4
2023-02-11T16:16:01.470Z,25.7
2023-02-11T16:21:01.377Z,25.7
2023-02-11T16:26:01.367Z,25.4
2023-02-11T16:31:03.134Z,24.5
2023-02-11T16:36:01.388Z,23.7
2023-02-11T16:41:01.365Z,23.4
2023-02-11T16:46:01.336Z,23.7
2023-02-11T16:51:01.311Z,23.9
2023-02-11T16:56:01.273Z,24.0
2023-02-11T17:01:01.527Z,24.4
2023-02-11T17:06:02.531Z,24.8
2023-02-11T17:11:01.360Z,25.0
2023-02-11T17:16:01.574Z,25.0
2023-02-11T17:21:01.386Z,25.5
2023-02-11T17:26:01.339Z,25.2
2023-02-11T17:31:01.476Z,24.8
2023-02-11T17:36:01.349Z,24.8
2023-02-11T17:41:01.371Z,25.4
2023-02-11T17:51:01.827Z,25.4
2023-02-11T17:56:01.262Z,25.9
2023-02-11T18:01:01.684Z,25.6
2023-02-11T18:06:01.304Z,25.6
2023-02-11T18:11:01.322Z,25.3
2023-02-11T18:16:02.443Z,26.2
2023-02-11T18:21:01.358Z,25.8
2023-02-11T18:26:01.255Z,26.6
2023-02-11T18:36:01.424Z,26.7
2023-02-11T18:41:01.346Z,26.6
2023-02-11T18:46:01.662Z,27.2
2023-02-11T18:51:01.821Z,27.1
2023-02-11T18:56:01.294Z,27.6
2023-02-11T19:01:01.583Z,28.2
2023-02-11T19:06:01.280Z,29.2
2023-02-11T19:11:01.343Z,29.2
2023-02-11T19:16:01.325Z,29.2
2023-02-11T19:21:01.406Z,29.3
2023-02-11T19:26:01.330Z,29.0
2023-02-11T19:31:01.623Z,27.8
2023-02-11T19:36:01.344Z,27.5
2023-02-11T19:41:01.367Z,26.5
2023-02-11T19:46:01.495Z,26.0
2023-02-11T19:51:01.368Z,25.1
2023-02-11T19:56:03.667Z,25.0
2023-02-11T20:01:01.481Z,24.6
2023-02-11T20:06:01.288Z,24.8
2023-02-11T20:11:01.285Z,24.5
2023-02-11T20:21:01.558Z,24.9
2023-02-11T20:26:01.264Z,24.4
2023-02-11T20:31:01.702Z,24.1
2023-02-11T20:36:01.328Z,23.9
2023-02-11T20:41:01.514Z,23.8
2023-02-11T20:46:01.481Z,23.4
2023-02-11T20:51:01.353Z,23.6
2023-02-11T20:56:01.278Z,24.0
2023-02-11T21:01:01.424Z,24.1
2023-02-11T21:06:01.352Z,23.9
2023-02-11T21:11:01.322Z,24.1
2023-02-11T21:16:01.579Z,24.6
2023-02-11T21:21:01.848Z,24.6
2023-02-11T21:26:01.327Z,24.4
2023-02-11T21:31:01.764Z,23.8
2023-02-11T21:36:01.293Z,24.0
2023-02-11T21:41:01.417Z,23.9
2023-02-11T21:46:01.307Z,23.7
2023-02-11T21:51:01.280Z,23.2
2023-02-11T21:56:01.265Z,24.0
2023-02-11T22:01:01.579Z,24.9
2023-02-11T22:06:01.771Z,25.5
2023-02-11T22:11:01.263Z,26.3
2023-02-11T22:16:01.483Z,27.4
2023-02-11T22:21:01.918Z,27.7
2023-02-11T22:26:01.272Z,27.3
2023-02-11T22:31:02.168Z,26.8
2023-02-11T22:36:01.463Z,26.2
2023-02-11T22:41:01.432Z,25.5
2023-02-11T22:46:01.557Z,24.8
2023-02-11T22:51:01.285Z,24.2
2023-02-11T22:56:01.388Z,24.2
2023-02-11T23:01:01.453Z,24.5
2023-02-11T23:06:01.298Z,24.8
2023-02-11T23:11:03.383Z,25.2
2023-02-11T23:16:01.288Z,25.4
2023-02-11T23:21:01.922Z,25.6
2023-02-11T23:31:01.473Z,24.9
2023-02-11T23:36:01.280Z,25.2
2023-02-11T23:41:01.470Z,25.6
2023-02-11T23:46:01.487Z,25.6
2023-02-11T23:51:01.274Z,25.7
2023-02-11T23:56:01.265Z,27.0
